Princesa De Sesimbra — CURP3 — position and weather

sailwx.info

Track history (hours):
 
Tides and Currents Weather Stations Pressure Air Temp Water Temp Dewpoint Dewpoint Depression Visibility Wind Speed Wind Dir Waves Ship Positions

Princesa De Sesimbra

Last reported at 2018-Jun-20 10:14 UTC. Time now 2018-Jun-20 13:06 UTC.
Position N 38°26' W 009°07'.

Length 20 m.

Type: Fishing. MMSI: 263424640.

Date/timePositionNaut miles runAvg speedWind from/ knotsBaromVisibWave heightAir tempDewpointWater temp
2018-Jun-20 10:14N 38°26' W 009°07'0 0.0
2018-Jun-20 09:27N 38°26' W 009°07'0 0.2
2018-Jun-20 09:00N 38°26' W 009°07'0 0.2
2018-Jun-20 08:30N 38°26' W 009°07'0 0.0
2018-Jun-20 08:00N 38°26' W 009°07'0 0.3
2018-Jun-20 07:30N 38°26' W 009°07'5 9.2
2018-Jun-20 07:00N 38°24' W 009°12'4 8.9
2018-Jun-20 06:30N 38°29' W 009°14'2 4.1
2018-Jun-20 06:00N 38°31' W 009°14'0 0.2
2018-Jun-20 05:29N 38°31' W 009°14'0 0.1
2018-Jun-20 04:59N 38°31' W 009°14'1 0.2
2018-Jun-19 22:02N 38°32' W 009°12'110.4
2018-Jun-19 21:59N 38°31' W 009°13'4 7.9
2018-Jun-19 21:30N 38°27' W 009°14'0 0.3
2018-Jun-19 21:00N 38°27' W 009°13'0 0.7
2018-Jun-19 20:28N 38°28' W 009°13'2 4.7
2018-Jun-19 19:59N 38°25' W 009°14'5 9.0
2018-Jun-19 19:28N 38°26' W 009°08'1 2.3
2018-Jun-19 19:00N 38°26' W 009°07'0 0.0
2018-Jun-19 16:24N 38°26' W 009°07'0 0.0
2018-Jun-19 15:59N 38°26' W 009°07'0 0.0
2018-Jun-19 11:53N 38°26' W 009°07'0 0.0
2018-Jun-19 11:30N 38°26' W 009°07'0 0.0
2018-Jun-19 11:00N 38°26' W 009°07'0 0.0
2018-Jun-19 10:30N 38°26' W 009°07'0 0.0
2018-Jun-19 10:00N 38°26' W 009°07'0 0.0
2018-Jun-19 09:28N 38°26' W 009°07'0 0.0
2018-Jun-19 09:00N 38°26' W 009°07'5 6.5
2018-Jun-19 08:15N 38°25' W 009°12'2 9.0
2018-Jun-19 08:00N 38°26' W 009°14'510.5
2018-Jun-19 07:30N 38°32' W 009°14'2 3.1
2018-Jun-19 07:00N 38°33' W 009°14'0 0.7
2018-Jun-19 06:29N 38°33' W 009°14'0 0.4
2018-Jun-19 06:00N 38°33' W 009°15'3 0.1
2018-Jun-17 23:32N 38°34' W 009°19'0 0.2
2018-Jun-17 23:29N 38°34' W 009°19'0 0.2
2018-Jun-17 23:00N 38°34' W 009°19'0 0.3
2018-Jun-17 22:30N 38°34' W 009°18'1 1.0
2018-Jun-17 22:00N 38°34' W 009°18'5 9.7
2018-Jun-17 21:30N 38°30' W 009°15'5 9.8
2018-Jun-17 21:00N 38°25' W 009°14'5 9.4
2018-Jun-17 20:30N 38°26' W 009°08'1 2.1
2018-Jun-17 20:00N 38°26' W 009°07'0 0.2
2018-Jun-17 19:30N 38°26' W 009°07'0 0.0
2018-Jun-17 19:00N 38°26' W 009°07'0 0.0
2018-Jun-17 18:30N 38°26' W 009°07'0 0.0
2018-Jun-17 18:00N 38°26' W 009°07'  
2018-Jun-15 13:48N 38°26' W 009°07'0 0.0
2018-Jun-15 13:30N 38°26' W 009°07'0 0.0
2018-Jun-15 13:00N 38°26' W 009°07'0 0.0
2018-Jun-15 12:30N 38°26' W 009°07'0 0.2
2018-Jun-15 12:00N 38°26' W 009°07'0 0.0
2018-Jun-15 11:30N 38°26' W 009°07'3 5.3
2018-Jun-15 11:00N 38°25' W 009°10'4 8.9
2018-Jun-15 10:30N 38°26' W 009°15'710.6
2018-Jun-15 09:51N 38°32' W 009°20'410.8
2018-Jun-15 09:30N 38°35' W 009°22'4 8.6
2018-Jun-15 09:00N 38°38' W 009°26'0 0.6
2018-Jun-15 08:30N 38°38' W 009°25'0 0.6
2018-Jun-15 08:00N 38°38' W 009°25'0 0.3
2018-Jun-15 07:30N 38°38' W 009°25'16 1.5
2018-Jun-14 20:24N 38°25' W 009°13'4 9.4
2018-Jun-14 20:00N 38°25' W 009°09'2 3.8
2018-Jun-14 19:30N 38°26' W 009°07'0 0.0
2018-Jun-14 11:42N 38°26' W 009°07'0 0.0
2018-Jun-14 11:30N 38°26' W 009°07'0 0.0
2018-Jun-14 11:00N 38°26' W 009°07'0 0.0
2018-Jun-14 10:28N 38°26' W 009°07'0 0.0
2018-Jun-14 10:00N 38°26' W 009°07'0 0.0
2018-Jun-14 09:30N 38°26' W 009°07'0 0.0
2018-Jun-14 09:00N 38°26' W 009°07'0 0.0
2018-Jun-14 08:29N 38°26' W 009°07'0 0.0
2018-Jun-14 08:00N 38°26' W 009°07'1 1.3
2018-Jun-14 07:30N 38°26' W 009°07'13 1.9
2018-Jun-14 01:00N 38°35' W 009°18'1 2.2
2018-Jun-14 00:31N 38°34' W 009°18'0 0.6
2018-Jun-14 00:00N 38°35' W 009°18'0 0.1
2018-Jun-13 23:28N 38°34' W 009°18'0 0.2
2018-Jun-13 23:00N 38°34' W 009°18'0 0.2
2018-Jun-13 22:30N 38°34' W 009°19'1 1.1
2018-Jun-13 22:01N 38°34' W 009°19'2 3.8
2018-Jun-13 21:31N 38°35' W 009°22'5 9.0
2018-Jun-13 21:00N 38°33' W 009°16'5 9.4
2018-Jun-13 20:29N 38°28' W 009°13'4 8.4
2018-Jun-13 20:01N 38°24' W 009°12'5 9.7
2018-Jun-13 19:30N 38°26' W 009°06'0 0.4
2018-Jun-13 18:59N 38°26' W 009°07'0 0.1
2018-Jun-13 18:30N 38°26' W 009°07'0 0.0
2018-Jun-13 11:48N 38°26' W 009°07'0 0.2
2018-Jun-13 11:30N 38°26' W 009°07'0 0.2
2018-Jun-13 10:59N 38°26' W 009°07'0 0.3
2018-Jun-13 10:30N 38°26' W 009°07'2 3.1
2018-Jun-13 09:59N 38°25' W 009°08'4 9.2
2018-Jun-13 09:30N 38°25' W 009°14'510.5
2018-Jun-13 08:59N 38°31' W 009°14'4 7.7
2018-Jun-13 08:30N 38°35' W 009°14'1 2.2
2018-Jun-13 08:00N 38°35' W 009°16'0 0.4
2018-Jun-13 07:30N 38°35' W 009°16'0 0.1
2018-Jun-13 07:00N 38°35' W 009°16'8 0.6
2018-Jun-12 19:02N 38°27' W 009°14'0 9.5
2018-Jun-12 18:58N 38°27' W 009°14'3 7.4
2018-Jun-12 18:30N 38°25' W 009°11'4 7.4
2018-Jun-12 18:00N 38°26' W 009°07'0 0.0
2018-Jun-12 10:48N 38°26' W 009°07'0 0.3
2018-Jun-12 10:29N 38°26' W 009°07'0 0.0
2018-Jun-12 10:00N 38°26' W 009°07'0 0.0
2018-Jun-12 09:29N 38°26' W 009°07'0 0.6
2018-Jun-12 09:00N 38°26' W 009°06'510.1
2018-Jun-12 08:29N 38°24' W 009°13'510.4
2018-Jun-12 08:00N 38°28' W 009°17'510.7
2018-Jun-12 07:30N 38°33' W 009°21'510.8
2018-Jun-12 07:00N 38°37' W 009°24'4 7.1
2018-Jun-12 06:30N 38°40' W 009°27'0 0.7
2018-Jun-12 06:00N 38°40' W 009°27'0 0.2
2018-Jun-12 05:30N 38°41' W 009°27'13 2.7
2018-Jun-12 00:42N 38°33' W 009°14'2 9.5
2018-Jun-12 00:30N 38°31' W 009°14'5 9.6
2018-Jun-12 00:00N 38°26' W 009°14'4 7.0
2018-Jun-11 23:28N 38°25' W 009°10'3 6.8
2018-Jun-11 23:00N 38°26' W 009°07'0 0.0
2018-Jun-11 22:30N 38°26' W 009°07'0 0.0
2018-Jun-11 22:00N 38°26' W 009°07'1 2.6
2018-Jun-11 21:30N 38°25' W 009°08'14 0.7
2018-Jun-11 01:57N 38°34' W 009°22'0 0.5
2018-Jun-11 01:30N 38°34' W 009°22'0 0.4
2018-Jun-11 00:58N 38°35' W 009°22'0 0.0
2018-Jun-11 00:30N 38°35' W 009°22'0 0.1
2018-Jun-11 00:00N 38°35' W 009°22'0 0.4
2018-Jun-10 23:30N 38°35' W 009°22'2 3.9
2018-Jun-10 23:00N 38°34' W 009°20'2 5.0
2018-Jun-10 22:30N 38°36' W 009°22'5 8.1
2018-Jun-10 21:57N 38°35' W 009°17'510.0
2018-Jun-10 21:29N 38°30' W 009°14'5 8.7
2018-Jun-10 20:58N 38°26' W 009°14'4 7.6
2018-Jun-10 20:28N 38°25' W 009°09'2 4.7
2018-Jun-10 19:58N 38°26' W 009°07'0 0.0
2018-Jun-10 19:30N 38°26' W 009°07'0 0.0
2018-Jun-10 19:00N 38°26' W 009°07'0 0.0
2018-Jun-10 18:29N 38°26' W 009°07'0 0.0
2018-Jun-10 18:00N 38°26' W 009°07'0 0.0
2018-Jun-10 17:30N 38°26' W 009°07'0 0.0
2018-Jun-10 17:00N 38°26' W 009°07'  
Track history (hours):
 
Tides and Currents Weather Stations Pressure Air Temp Water Temp Dewpoint Dewpoint Depression Visibility Wind Speed Wind Dir Waves Ship Positions

Princesa De Sesimbra

Last reported at 2018-Jun-20 10:14 UTC. Time now 2018-Jun-20 13:06 UTC.
Position N 38°26' W 009°07'.

Length 20 m.

Type: Fishing. MMSI: 263424640.

Date/timePositionNaut miles runAvg speedWind from/ knotsBaromVisibWave heightAir tempDewpointWater temp
2018-Jun-20 10:14N 38°26' W 009°07'0 0.0
2018-Jun-20 09:27N 38°26' W 009°07'0 0.2
2018-Jun-20 09:00N 38°26' W 009°07'0 0.2
2018-Jun-20 08:30N 38°26' W 009°07'0 0.0
2018-Jun-20 08:00N 38°26' W 009°07'0 0.3
2018-Jun-20 07:30N 38°26' W 009°07'5 9.2
2018-Jun-20 07:00N 38°24' W 009°12'4 8.9
2018-Jun-20 06:30N 38°29' W 009°14'2 4.1
2018-Jun-20 06:00N 38°31' W 009°14'0 0.2
2018-Jun-20 05:29N 38°31' W 009°14'0 0.1
2018-Jun-20 04:59N 38°31' W 009°14'1 0.2
2018-Jun-19 22:02N 38°32' W 009°12'110.4
2018-Jun-19 21:59N 38°31' W 009°13'4 7.9
2018-Jun-19 21:30N 38°27' W 009°14'0 0.3
2018-Jun-19 21:00N 38°27' W 009°13'0 0.7
2018-Jun-19 20:28N 38°28' W 009°13'2 4.7
2018-Jun-19 19:59N 38°25' W 009°14'5 9.0
2018-Jun-19 19:28N 38°26' W 009°08'1 2.3
2018-Jun-19 19:00N 38°26' W 009°07'0 0.0
2018-Jun-19 16:24N 38°26' W 009°07'0 0.0
2018-Jun-19 15:59N 38°26' W 009°07'0 0.0
2018-Jun-19 11:53N 38°26' W 009°07'0 0.0
2018-Jun-19 11:30N 38°26' W 009°07'0 0.0
2018-Jun-19 11:00N 38°26' W 009°07'0 0.0
2018-Jun-19 10:30N 38°26' W 009°07'0 0.0
2018-Jun-19 10:00N 38°26' W 009°07'0 0.0
2018-Jun-19 09:28N 38°26' W 009°07'0 0.0
2018-Jun-19 09:00N 38°26' W 009°07'5 6.5
2018-Jun-19 08:15N 38°25' W 009°12'2 9.0
2018-Jun-19 08:00N 38°26' W 009°14'510.5
2018-Jun-19 07:30N 38°32' W 009°14'2 3.1
2018-Jun-19 07:00N 38°33' W 009°14'0 0.7
2018-Jun-19 06:29N 38°33' W 009°14'0 0.4
2018-Jun-19 06:00N 38°33' W 009°15'3 0.1
2018-Jun-17 23:32N 38°34' W 009°19'0 0.2
2018-Jun-17 23:29N 38°34' W 009°19'0 0.2
2018-Jun-17 23:00N 38°34' W 009°19'0 0.3
2018-Jun-17 22:30N 38°34' W 009°18'1 1.0
2018-Jun-17 22:00N 38°34' W 009°18'5 9.7
2018-Jun-17 21:30N 38°30' W 009°15'5 9.8
2018-Jun-17 21:00N 38°25' W 009°14'5 9.4
2018-Jun-17 20:30N 38°26' W 009°08'1 2.1
2018-Jun-17 20:00N 38°26' W 009°07'0 0.2
2018-Jun-17 19:30N 38°26' W 009°07'0 0.0
2018-Jun-17 19:00N 38°26' W 009°07'0 0.0
2018-Jun-17 18:30N 38°26' W 009°07'0 0.0
2018-Jun-17 18:00N 38°26' W 009°07'  
2018-Jun-15 13:48N 38°26' W 009°07'0 0.0
2018-Jun-15 13:30N 38°26' W 009°07'0 0.0
2018-Jun-15 13:00N 38°26' W 009°07'0 0.0
2018-Jun-15 12:30N 38°26' W 009°07'0 0.2
2018-Jun-15 12:00N 38°26' W 009°07'0 0.0
2018-Jun-15 11:30N 38°26' W 009°07'3 5.3
2018-Jun-15 11:00N 38°25' W 009°10'4 8.9
2018-Jun-15 10:30N 38°26' W 009°15'710.6
2018-Jun-15 09:51N 38°32' W 009°20'410.8
2018-Jun-15 09:30N 38°35' W 009°22'4 8.6
2018-Jun-15 09:00N 38°38' W 009°26'0 0.6
2018-Jun-15 08:30N 38°38' W 009°25'0 0.6
2018-Jun-15 08:00N 38°38' W 009°25'0 0.3
2018-Jun-15 07:30N 38°38' W 009°25'16 1.5
2018-Jun-14 20:24N 38°25' W 009°13'4 9.4
2018-Jun-14 20:00N 38°25' W 009°09'2 3.8
2018-Jun-14 19:30N 38°26' W 009°07'0 0.0
2018-Jun-14 11:42N 38°26' W 009°07'0 0.0
2018-Jun-14 11:30N 38°26' W 009°07'0 0.0
2018-Jun-14 11:00N 38°26' W 009°07'0 0.0
2018-Jun-14 10:28N 38°26' W 009°07'0 0.0
2018-Jun-14 10:00N 38°26' W 009°07'0 0.0
2018-Jun-14 09:30N 38°26' W 009°07'0 0.0
2018-Jun-14 09:00N 38°26' W 009°07'0 0.0
2018-Jun-14 08:29N 38°26' W 009°07'0 0.0
2018-Jun-14 08:00N 38°26' W 009°07'1 1.3
2018-Jun-14 07:30N 38°26' W 009°07'13 1.9
2018-Jun-14 01:00N 38°35' W 009°18'1 2.2
2018-Jun-14 00:31N 38°34' W 009°18'0 0.6
2018-Jun-14 00:00N 38°35' W 009°18'0 0.1
2018-Jun-13 23:28N 38°34' W 009°18'0 0.2
2018-Jun-13 23:00N 38°34' W 009°18'0 0.2
2018-Jun-13 22:30N 38°34' W 009°19'1 1.1
2018-Jun-13 22:01N 38°34' W 009°19'2 3.8
2018-Jun-13 21:31N 38°35' W 009°22'5 9.0
2018-Jun-13 21:00N 38°33' W 009°16'5 9.4
2018-Jun-13 20:29N 38°28' W 009°13'4 8.4
2018-Jun-13 20:01N 38°24' W 009°12'5 9.7
2018-Jun-13 19:30N 38°26' W 009°06'0 0.4
2018-Jun-13 18:59N 38°26' W 009°07'0 0.1
2018-Jun-13 18:30N 38°26' W 009°07'0 0.0
2018-Jun-13 11:48N 38°26' W 009°07'0 0.2
2018-Jun-13 11:30N 38°26' W 009°07'0 0.2
2018-Jun-13 10:59N 38°26' W 009°07'0 0.3
2018-Jun-13 10:30N 38°26' W 009°07'2 3.1
2018-Jun-13 09:59N 38°25' W 009°08'4 9.2
2018-Jun-13 09:30N 38°25' W 009°14'510.5
2018-Jun-13 08:59N 38°31' W 009°14'4 7.7
2018-Jun-13 08:30N 38°35' W 009°14'1 2.2
2018-Jun-13 08:00N 38°35' W 009°16'0 0.4
2018-Jun-13 07:30N 38°35' W 009°16'0 0.1
2018-Jun-13 07:00N 38°35' W 009°16'8 0.6
2018-Jun-12 19:02N 38°27' W 009°14'0 9.5
2018-Jun-12 18:58N 38°27' W 009°14'3 7.4
2018-Jun-12 18:30N 38°25' W 009°11'4 7.4
2018-Jun-12 18:00N 38°26' W 009°07'0 0.0
2018-Jun-12 10:48N 38°26' W 009°07'0 0.3
2018-Jun-12 10:29N 38°26' W 009°07'0 0.0
2018-Jun-12 10:00N 38°26' W 009°07'0 0.0
2018-Jun-12 09:29N 38°26' W 009°07'0 0.6
2018-Jun-12 09:00N 38°26' W 009°06'510.1
2018-Jun-12 08:29N 38°24' W 009°13'510.4
2018-Jun-12 08:00N 38°28' W 009°17'510.7
2018-Jun-12 07:30N 38°33' W 009°21'510.8
2018-Jun-12 07:00N 38°37' W 009°24'4 7.1
2018-Jun-12 06:30N 38°40' W 009°27'0 0.7
2018-Jun-12 06:00N 38°40' W 009°27'0 0.2
2018-Jun-12 05:30N 38°41' W 009°27'13 2.7
2018-Jun-12 00:42N 38°33' W 009°14'2 9.5
2018-Jun-12 00:30N 38°31' W 009°14'5 9.6
2018-Jun-12 00:00N 38°26' W 009°14'4 7.0
2018-Jun-11 23:28N 38°25' W 009°10'3 6.8
2018-Jun-11 23:00N 38°26' W 009°07'0 0.0
2018-Jun-11 22:30N 38°26' W 009°07'0 0.0
2018-Jun-11 22:00N 38°26' W 009°07'1 2.6
2018-Jun-11 21:30N 38°25' W 009°08'14 0.7
2018-Jun-11 01:57N 38°34' W 009°22'0 0.5
2018-Jun-11 01:30N 38°34' W 009°22'0 0.4
2018-Jun-11 00:58N 38°35' W 009°22'0 0.0
2018-Jun-11 00:30N 38°35' W 009°22'0 0.1
2018-Jun-11 00:00N 38°35' W 009°22'0 0.4
2018-Jun-10 23:30N 38°35' W 009°22'2 3.9
2018-Jun-10 23:00N 38°34' W 009°20'2 5.0
2018-Jun-10 22:30N 38°36' W 009°22'5 8.1
2018-Jun-10 21:57N 38°35' W 009°17'510.0
2018-Jun-10 21:29N 38°30' W 009°14'5 8.7
2018-Jun-10 20:58N 38°26' W 009°14'4 7.6
2018-Jun-10 20:28N 38°25' W 009°09'2 4.7
2018-Jun-10 19:58N 38°26' W 009°07'0 0.0
2018-Jun-10 19:30N 38°26' W 009°07'0 0.0
2018-Jun-10 19:00N 38°26' W 009°07'0 0.0
2018-Jun-10 18:29N 38°26' W 009°07'0 0.0
2018-Jun-10 18:00N 38°26' W 009°07'0 0.0
2018-Jun-10 17:30N 38°26' W 009°07'0 0.0
2018-Jun-10 17:00N 38°26' W 009°07'  

Dump ship's entire track history